Search for airport 
image banner adimage banner adimage banner ad
image banner ad

8PS1 - Bethlehem Steel Plant

Located in Bethlehem, United States

ICAO - 8PS1, IATA -

Data provided by Airmate  

General information

Coordinates: N40°36'45" W75°20'49"
Elevation is 300 feet MSL.
Magnetic variation is -12° East
View others Airports in Pennsylvania

Operational data

Special qualification required
Current time UTC:
Current local time:
Weather at : KABE - Lehigh Valley Intl ( 9 km )
METAR: KABE 061151Z 31008KT 10SM OVC041 11/03 A3000 RMK AO2 SLP160 70029 T01060033 10106 20078 53024 $
TAF: KABE 060720Z 0607/0706 30008KT P6SM FEW150 FM061400 33014KT P6SM FEW060 FM062300 VRB03KT P6SM BKN150
View NOTAMs / SUP AIP / TFR affecting this airport [VIEW]
Communications frequencies: [VIEW]

Runways:

Airport contact information

Address: Bethlehem United States

Satellite view of 8PS1